INTERACTIVE WEATHER
 METAR AND TAF INFORMATION
METAR FOR K54J
ADDS - METARS form results

(1023 UTC 22 February 2019)
Data provider http://aviationweather.gov/metar/data/
 
METAR text: K54J 221015Z AUTO 17006KT 1 1/4SM BR OVC003 19/19 A3010 RMK AO2 T01900188
Conditions at: K54J (DE FUNIAK SPRNGS, FL, US) observed 1015 UTC 22 February 2019
Temperature: 19.0°C (66°F)
Dewpoint: 18.8°C (66°F) [RH = 99%]
Pressure (altimeter): 30.10 inches Hg (1019.4 mb)
Winds: from the S (170 degrees) at 7 MPH (6 knots; 3.1 m/s)
Visibility: 1.25 miles (2.01 km)
Ceiling: 300 feet AGL
Clouds: overcast cloud deck at 300 feet AGL
Weather: BR  (mist)

METAR text: K54J 220955Z AUTO 18004KT 2SM BR OVC003 19/19 A3010 RMK AO2 T01910190
Conditions at: K54J (DE FUNIAK SPRNGS, FL, US) observed 0955 UTC 22 February 2019
Temperature: 19.1°C (66°F)
Dewpoint: 19.0°C (66°F) [RH = 99%]
Pressure (altimeter): 30.10 inches Hg (1019.4 mb)
Winds: from the S (180 degrees) at 5 MPH (4 knots; 2.1 m/s)
Visibility: 2.00 miles (3.22 km)
Ceiling: 300 feet AGL
Clouds: overcast cloud deck at 300 feet AGL
Weather: BR  (mist)

METAR text: K54J 220935Z AUTO 17005KT 1SM BR OVC003 19/19 A3010 RMK AO2 T01920190
Conditions at: K54J (DE FUNIAK SPRNGS, FL, US) observed 0935 UTC 22 February 2019
Temperature: 19.2°C (67°F)
Dewpoint: 19.0°C (66°F) [RH = 99%]
Pressure (altimeter): 30.10 inches Hg (1019.4 mb)
Winds: from the S (170 degrees) at 6 MPH (5 knots; 2.6 m/s)
Visibility: 1.00 miles (1.61 km)
Ceiling: 300 feet AGL
Clouds: overcast cloud deck at 300 feet AGL
Weather: BR  (mist)

 AIRPORT MAP

 RUNWAY INFORMATION
Runway 09 Runway length 4100 ft Runway width 60 ft
Runway elevation 288 ft Runway displaced threshold 0 ft Runway heading 90
Runway 27 Runway length 4100 ft Runway width 60 ft
Runway elevation 272 ft Runway displaced threshold 0 ft Runway heading 270
Runway 18 Runway length 2700 ft Runway width 50 ft
Runway elevation 283 ft Runway displaced threshold 165 ft Runway heading 180
Runway 36 Runway length 2700 ft Runway width 50 ft
Runway elevation 270 ft Runway displaced threshold 400 ft Runway heading 360

 AIRPORT FREQUENCIES
Type UNIC Name CTAF/UNICO Frequency 122.8 MHZ

 AIRPORT NEAR NAVIGATION AIDS

Neither the Department of the Army, nor any other component of the Department of Defense or Federal Government has approved, endorsed, or authorized this promotion, activity, or organization. Virtual United States Army Aviation organization is in no way affiliated with the Department of Defense, Department of the Army, or any other federal or government entity. Virtual United States Army Aviation is a group of flight simulation enthusiasts with the common interest of promoting enjoyment and cameraderie through the simulation of military operations and procedures utilizing several flight simulation platforms.

Copyright © vUSAA 2017-2019 All Rights Reserved